Time;durP1;ratioP1;P1;durP2;ratioP2;P2;SDS_P1;SDS_P2;PMS_P1;PMS_P2;Temp;Humidity;BMP_temperature;BMP_pressure;BME280_temperature;BME280_humidity;BME280_pressure;Samples;Min_cycle;Max_cycle;Signal;HPM_P1;HPM_P2
2022/01/18 00:01:45;;;;;;;13.52;7.95;;;;;;;;;;5025297;28;20087;-57
2022/01/18 00:04:11;;;;;;;11.40;7.78;;;;;;;;;;5015464;28;20616;-54
2022/01/18 00:06:40;;;;;;;11.63;7.65;;;;;;;;;;5019701;28;20034;-57
2022/01/18 00:09:06;;;;;;;9.18;7.32;;;;;;;;;;5021742;28;20038;-56
2022/01/18 00:11:40;;;;;;;11.55;7.43;;;;;;;;;;5020688;28;20033;-57
2022/01/18 00:14:13;;;;;;;10.25;7.70;;;;;;;;;;5017925;28;20079;-55
2022/01/18 00:17:00;;;;;;;9.15;6.85;;;;;;;;;;5021160;28;20033;-58
2022/01/18 00:19:25;;;;;;;10.35;6.85;;;;;;;;;;5025578;28;20542;-58
2022/01/18 00:24:17;;;;;;;9.75;6.75;;;;;;;;;;5021220;28;20044;-57
2022/01/18 00:26:43;;;;;;;8.23;6.72;;;;;;;;;;5023435;28;20038;-55
2022/01/18 00:29:12;;;;;;;11.13;6.97;;;;;;;;;;5022227;28;20037;-57
2022/01/18 00:32:06;;;;;;;11.38;7.32;;;;;;;;;;5026790;28;20033;-56
2022/01/18 00:34:31;;;;;;;9.85;7.00;;;;;;;;;;5019324;28;20441;-56
2022/01/18 00:39:23;;;;;;;9.90;6.75;;;;;;;;;;5023098;28;20067;-56
2022/01/18 00:41:50;;;;;;;8.02;6.68;;;;;;;;;;5017050;28;20037;-56
2022/01/18 00:44:16;;;;;;;9.40;6.90;;;;;;;;;;5017639;28;20037;-56
2022/01/18 00:46:42;;;;;;;11.40;6.85;;;;;;;;;;5022679;28;20025;-56
2022/01/18 00:49:10;;;;;;;8.30;6.50;;;;;;;;;;5020320;28;20037;-58
2022/01/18 00:51:39;;;;;;;10.73;7.10;;;;;;;;;;5025501;28;20037;-56
2022/01/18 00:54:07;;;;;;;8.90;6.75;;;;;;;;;;5024169;28;20029;-56
2022/01/18 00:56:38;;;;;;;8.48;6.80;;;;;;;;;;5021700;28;20729;-56
2022/01/18 00:59:03;;;;;;;8.98;7.30;;;;;;;;;;5023839;28;20474;-58
2022/01/18 01:01:30;;;;;;;9.65;6.85;;;;;;;;;;5021520;28;20110;-55
2022/01/18 01:04:01;;;;;;;12.75;7.43;;;;;;;;;;5019758;28;20120;-57
2022/01/18 01:06:27;;;;;;;10.23;6.78;;;;;;;;;;5019809;28;20041;-58
2022/01/18 01:08:53;;;;;;;8.55;6.82;;;;;;;;;;5017829;28;20380;-56
2022/01/18 01:11:19;;;;;;;10.80;6.85;;;;;;;;;;5021497;28;20033;-57
2022/01/18 01:13:49;;;;;;;8.90;7.13;;;;;;;;;;5022185;28;20048;-57
2022/01/18 01:19:53;;;;;;;8.45;6.63;;;;;;;;;;5022322;28;20088;-55
2022/01/18 01:35:26;;;;;;;8.45;6.85;;;;;;;;;;5017694;28;20044;-54
2022/01/18 01:46:34;;;;;;;10.48;6.85;;;;;;;;;;4987350;28;20048;-57
2022/01/18 01:49:03;;;;;;;9.50;7.28;;;;;;;;;;4986489;28;20505;-55
2022/01/18 01:51:30;;;;;;;11.07;7.25;;;;;;;;;;4987970;28;20069;-52
2022/01/18 01:53:58;;;;;;;10.82;7.43;;;;;;;;;;4988424;28;20034;-54
2022/01/18 01:56:25;;;;;;;9.50;7.18;;;;;;;;;;4987355;28;20129;-57
2022/01/18 01:58:51;;;;;;;9.77;7.43;;;;;;;;;;4988472;28;20030;-56
2022/01/18 02:01:17;;;;;;;9.63;6.55;;;;;;;;;;4987920;28;20517;-56
2022/01/18 02:03:42;;;;;;;9.20;7.55;;;;;;;;;;4983963;28;20047;-58
2022/01/18 02:06:09;;;;;;;10.02;7.55;;;;;;;;;;4986472;28;20045;-53
2022/01/18 02:08:34;;;;;;;7.72;6.57;;;;;;;;;;4985801;28;20057;-57
2022/01/18 02:11:00;;;;;;;10.05;7.10;;;;;;;;;;4988651;28;20392;-57
2022/01/18 02:13:26;;;;;;;9.60;7.15;;;;;;;;;;4987211;28;20534;-58
2022/01/18 02:23:55;;;;;;;11.07;6.68;;;;;;;;;;5014679;28;20539;-56
2022/01/18 02:26:21;;;;;;;9.05;6.68;;;;;;;;;;5022349;28;20029;-54
2022/01/18 02:28:46;;;;;;;9.45;6.53;;;;;;;;;;5027385;28;20034;-56
2022/01/18 02:31:12;;;;;;;8.35;6.85;;;;;;;;;;5020911;28;20044;-59
2022/01/18 02:33:38;;;;;;;10.88;7.43;;;;;;;;;;5018170;28;20034;-57
2022/01/18 02:36:09;;;;;;;12.02;6.55;;;;;;;;;;5023192;28;20041;-56
2022/01/18 02:38:35;;;;;;;12.35;7.70;;;;;;;;;;5025219;28;20041;-55
2022/01/18 02:41:01;;;;;;;10.18;6.85;;;;;;;;;;5024020;28;20032;-58
2022/01/18 02:43:47;;;;;;;12.23;7.88;;;;;;;;;;5029931;28;20034;-57
2022/01/18 02:46:13;;;;;;;9.90;7.97;;;;;;;;;;5019949;28;20034;-56
2022/01/18 02:48:38;;;;;;;12.88;7.53;;;;;;;;;;5027649;28;20045;-57
2022/01/18 02:51:04;;;;;;;11.85;7.30;;;;;;;;;;5026185;28;20476;-55
2022/01/18 02:53:30;;;;;;;10.07;7.32;;;;;;;;;;5026106;28;20045;-56
2022/01/18 02:55:57;;;;;;;10.63;7.40;;;;;;;;;;5023924;28;20441;-57
2022/01/18 02:58:31;;;;;;;10.73;6.70;;;;;;;;;;5023697;28;20033;-56
2022/01/18 03:03:37;;;;;;;9.25;6.55;;;;;;;;;;5019702;28;20022;-56
2022/01/18 03:06:03;;;;;;;;;;;;;;;;;;5023486;28;20446;-56
2022/01/18 03:08:29;;;;;;;11.45;7.43;;;;;;;;;;5020189;28;19948;-54
2022/01/18 03:10:56;;;;;;;13.30;7.22;;;;;;;;;;5019634;28;20037;-58
2022/01/18 03:13:22;;;;;;;8.52;6.75;;;;;;;;;;5026356;28;20103;-57
2022/01/18 03:15:48;;;;;;;8.13;6.50;;;;;;;;;;5027813;28;20033;-57
2022/01/18 03:18:14;;;;;;;9.27;6.85;;;;;;;;;;5021756;28;21029;-57
2022/01/18 03:20:39;;;;;;;11.27;7.25;;;;;;;;;;5021124;28;20038;-58
2022/01/18 03:23:11;;;;;;;9.88;6.93;;;;;;;;;;5025448;28;20033;-57
2022/01/18 03:25:52;;;;;;;10.50;7.00;;;;;;;;;;5019364;28;20430;-58
2022/01/18 03:28:19;;;;;;;11.13;7.65;;;;;;;;;;5020392;28;20042;-57
2022/01/18 03:30:49;;;;;;;10.60;7.43;;;;;;;;;;5020150;28;20033;-56
2022/01/18 03:33:16;;;;;;;10.65;7.20;;;;;;;;;;5022847;28;20073;-56
2022/01/18 03:35:44;;;;;;;11.55;7.18;;;;;;;;;;5023379;28;20042;-54
2022/01/18 03:38:11;;;;;;;13.75;7.88;;;;;;;;;;5020173;28;20045;-57
2022/01/18 03:40:37;;;;;;;10.93;7.72;;;;;;;;;;5022999;28;20057;-55
2022/01/18 03:43:06;;;;;;;12.10;7.55;;;;;;;;;;5025641;28;20033;-57
2022/01/18 03:45:40;;;;;;;12.82;7.80;;;;;;;;;;5021690;28;20079;-56
2022/01/18 03:48:11;;;;;;;9.60;7.78;;;;;;;;;;5022938;28;20041;-57
2022/01/18 03:50:37;;;;;;;8.85;7.10;;;;;;;;;;5019697;28;20343;-56
2022/01/18 03:53:03;;;;;;;10.80;7.50;;;;;;;;;;5023349;28;20032;-58
2022/01/18 03:55:28;;;;;;;8.57;6.65;;;;;;;;;;5020735;28;20096;-58
2022/01/18 03:57:54;;;;;;;10.70;7.55;;;;;;;;;;5021758;28;20137;-56
2022/01/18 04:00:22;;;;;;;12.65;7.80;;;;;;;;;;5023719;28;20030;-56
2022/01/18 04:02:49;;;;;;;9.75;7.07;;;;;;;;;;5025338;28;20029;-54
2022/01/18 04:05:16;;;;;;;12.00;7.30;;;;;;;;;;5017602;28;20493;-58
2022/01/18 04:07:42;;;;;;;11.23;7.10;;;;;;;;;;5021234;28;20048;-56
2022/01/18 04:10:09;;;;;;;9.52;7.32;;;;;;;;;;5016769;28;20101;-57
2022/01/18 04:12:35;;;;;;;10.07;6.82;;;;;;;;;;5022879;28;20075;-53
2022/01/18 04:15:06;;;;;;;10.38;7.60;;;;;;;;;;5019064;28;20463;-58
2022/01/18 04:17:48;;;;;;;9.95;7.40;;;;;;;;;;5024874;28;20117;-54
2022/01/18 04:28:42;;;;;;;10.50;7.55;;;;;;;;;;5020244;28;20026;-56
2022/01/18 04:31:09;;;;;;;11.30;7.65;;;;;;;;;;5017033;28;20119;-56
2022/01/18 04:33:37;;;;;;;13.52;8.02;;;;;;;;;;5021829;28;20025;-54
2022/01/18 04:36:04;;;;;;;9.82;7.90;;;;;;;;;;5022731;28;20433;-58
2022/01/18 04:38:30;;;;;;;11.93;8.02;;;;;;;;;;5025607;28;20033;-58
2022/01/18 04:41:05;;;;;;;11.13;8.05;;;;;;;;;;5019953;28;20504;-57
2022/01/18 04:49:00;;;;;;;12.55;7.60;;;;;;;;;;5024758;28;20064;-57
2022/01/18 04:51:26;;;;;;;10.68;7.38;;;;;;;;;;5022144;28;20030;-58
2022/01/18 04:53:55;;;;;;;9.60;7.00;;;;;;;;;;5013731;28;20083;-57
2022/01/18 04:59:18;;;;;;;11.93;7.07;;;;;;;;;;5003330;28;20053;-57
2022/01/18 05:01:47;;;;;;;11.60;7.45;;;;;;;;;;5004124;28;20487;-58
2022/01/18 05:04:13;;;;;;;11.00;7.88;;;;;;;;;;5004284;28;20057;-57
2022/01/18 05:06:39;;;;;;;14.07;8.52;;;;;;;;;;5003421;28;20045;-53
2022/01/18 05:09:08;;;;;;;14.77;7.90;;;;;;;;;;5002592;28;20061;-58
2022/01/18 05:11:45;;;;;;;12.70;7.82;;;;;;;;;;5003234;28;20044;-58
2022/01/18 05:14:24;;;;;;;12.18;8.00;;;;;;;;;;5002612;28;20053;-57
2022/01/18 05:16:58;;;;;;;11.73;7.88;;;;;;;;;;5008524;28;20553;-57
2022/01/18 05:24:52;;;;;;;13.23;8.38;;;;;;;;;;5008253;28;20041;-56
2022/01/18 05:27:18;;;;;;;14.10;8.32;;;;;;;;;;5005054;28;20113;-58
2022/01/18 05:29:44;;;;;;;13.30;8.75;;;;;;;;;;5006592;28;20506;-58
2022/01/18 05:32:10;;;;;;;13.45;8.90;;;;;;;;;;5006067;28;20056;-56
2022/01/18 05:34:36;;;;;;;13.15;9.00;;;;;;;;;;5008050;28;20108;-57
2022/01/18 05:37:01;;;;;;;12.00;9.27;;;;;;;;;;5025971;28;20474;-57
2022/01/18 05:39:27;;;;;;;12.77;8.48;;;;;;;;;;5022575;28;20178;-58
2022/01/18 05:41:53;;;;;;;13.05;8.40;;;;;;;;;;5022896;28;20036;-58
2022/01/18 05:44:19;;;;;;;12.18;9.25;;;;;;;;;;5028051;28;20608;-57
2022/01/18 05:46:44;;;;;;;12.00;8.80;;;;;;;;;;5021563;28;20029;-57
2022/01/18 05:49:10;;;;;;;15.25;10.07;;;;;;;;;;5019053;28;20045;-54
2022/01/18 05:51:41;;;;;;;19.38;10.48;;;;;;;;;;5025016;28;20130;-57
2022/01/18 05:54:07;;;;;;;14.75;9.85;;;;;;;;;;5024495;28;20042;-58
2022/01/18 05:56:34;;;;;;;12.02;8.63;;;;;;;;;;5024494;28;20029;-58
2022/01/18 05:59:03;;;;;;;14.50;9.52;;;;;;;;;;5024670;28;20033;-57
2022/01/18 06:01:34;;;;;;;15.85;9.48;;;;;;;;;;5023403;28;20018;-55
2022/01/18 06:09:13;;;;;;;14.35;8.80;;;;;;;;;;5026652;28;20029;-56
2022/01/18 06:11:40;;;;;;;17.83;9.40;;;;;;;;;;5027723;28;20033;-58
2022/01/18 06:14:06;;;;;;;17.92;10.52;;;;;;;;;;5027001;28;20033;-57
2022/01/18 06:16:31;;;;;;;18.20;10.25;;;;;;;;;;5025530;28;20040;-57
2022/01/18 06:18:57;;;;;;;12.38;8.80;;;;;;;;;;5020976;28;20045;-59
2022/01/18 06:21:23;;;;;;;12.90;9.48;;;;;;;;;;5019738;28;20042;-58
2022/01/18 06:23:49;;;;;;;17.10;9.27;;;;;;;;;;5024673;28;20467;-56
2022/01/18 06:26:16;;;;;;;13.98;9.65;;;;;;;;;;5020619;28;20045;-55
2022/01/18 06:28:42;;;;;;;12.32;8.73;;;;;;;;;;5022747;28;20033;-57
2022/01/18 06:31:09;;;;;;;13.10;9.25;;;;;;;;;;5020561;28;20485;-56
2022/01/18 06:33:34;;;;;;;13.93;10.18;;;;;;;;;;5022031;28;20032;-57
2022/01/18 06:36:00;;;;;;;20.60;10.75;;;;;;;;;;5022692;28;20080;-57
2022/01/18 06:38:26;;;;;;;13.80;9.90;;;;;;;;;;5022630;28;20034;-57
2022/01/18 06:40:51;;;;;;;19.13;12.07;;;;;;;;;;5021180;28;20308;-58
2022/01/18 06:43:17;;;;;;;14.77;11.25;;;;;;;;;;5023305;28;20068;-58
2022/01/18 06:45:43;;;;;;;16.63;11.52;;;;;;;;;;5018526;28;20466;-56
2022/01/18 06:48:09;;;;;;;17.83;11.27;;;;;;;;;;5024496;28;20029;-55
2022/01/18 06:50:35;;;;;;;19.17;12.32;;;;;;;;;;5022178;28;20028;-58
2022/01/18 06:53:01;;;;;;;17.55;10.60;;;;;;;;;;5022655;28;20033;-58
2022/01/18 06:55:27;;;;;;;15.98;9.85;;;;;;;;;;5024702;28;20069;-56
2022/01/18 06:57:54;;;;;;;16.25;10.20;;;;;;;;;;5026534;28;20036;-58
2022/01/18 07:00:20;;;;;;;19.55;10.85;;;;;;;;;;5025810;28;20044;-57
2022/01/18 07:02:45;;;;;;;16.77;11.13;;;;;;;;;;5021931;28;20025;-57
2022/01/18 07:05:11;;;;;;;21.25;11.07;;;;;;;;;;5019535;28;20034;-57
2022/01/18 07:07:38;;;;;;;20.17;11.68;;;;;;;;;;5019048;28;20038;-56
2022/01/18 07:10:05;;;;;;;16.20;11.93;;;;;;;;;;5022094;28;20026;-57
2022/01/18 07:12:34;;;;;;;21.13;11.25;;;;;;;;;;5018655;28;20478;-58
2022/01/18 07:15:06;;;;;;;80.75;32.80;;;;;;;;;;5018364;28;20060;-57
2022/01/18 07:17:31;;;;;;;54.47;26.87;;;;;;;;;;5023451;28;20041;-58
2022/01/18 07:19:57;;;;;;;29.45;16.70;;;;;;;;;;5022701;28;20321;-58
2022/01/18 07:22:23;;;;;;;26.42;15.65;;;;;;;;;;5020871;28;20041;-54
2022/01/18 07:24:50;;;;;;;34.58;20.77;;;;;;;;;;5024163;28;20053;-58
2022/01/18 07:27:17;;;;;;;20.70;12.80;;;;;;;;;;5027643;28;20104;-58
2022/01/18 07:29:43;;;;;;;17.80;12.10;;;;;;;;;;5020262;28;20415;-56
2022/01/18 07:32:10;;;;;;;16.67;11.65;;;;;;;;;;5023915;28;20069;-53
2022/01/18 07:34:41;;;;;;;23.77;14.65;;;;;;;;;;5026568;28;20045;-56
2022/01/18 07:37:09;;;;;;;42.50;19.58;;;;;;;;;;5020679;28;20064;-58
2022/01/18 07:39:34;;;;;;;53.83;23.40;;;;;;;;;;5026006;28;20048;-58
2022/01/18 07:42:00;;;;;;;24.17;13.55;;;;;;;;;;5016622;28;20186;-57
2022/01/18 07:44:26;;;;;;;25.70;13.02;;;;;;;;;;5024480;28;20037;-57
2022/01/18 07:46:52;;;;;;;23.42;12.13;;;;;;;;;;5024059;28;20414;-58
2022/01/18 07:49:17;;;;;;;64.47;20.73;;;;;;;;;;5021249;28;20441;-58
2022/01/18 07:51:43;;;;;;;253.10;60.63;;;;;;;;;;5026061;28;20029;-57
2022/01/18 07:54:10;;;;;;;131.15;33.92;;;;;;;;;;5022428;28;20052;-57
2022/01/18 07:56:41;;;;;;;22.10;10.40;;;;;;;;;;5018207;28;20486;-57
2022/01/18 07:59:08;;;;;;;16.88;10.52;;;;;;;;;;5020963;28;20592;-58
2022/01/18 08:01:33;;;;;;;10.80;8.50;;;;;;;;;;5020390;28;20041;-57
2022/01/18 08:03:59;;;;;;;16.58;9.30;;;;;;;;;;5019136;28;20487;-56
2022/01/18 08:06:25;;;;;;;16.58;10.10;;;;;;;;;;5019391;28;20378;-56
2022/01/18 08:08:50;;;;;;;32.75;17.70;;;;;;;;;;5022021;28;20024;-58
2022/01/18 08:11:16;;;;;;;62.38;27.17;;;;;;;;;;5021167;28;20045;-58
2022/01/18 08:13:46;;;;;;;40.67;20.85;;;;;;;;;;5019934;28;20041;-56
2022/01/18 08:18:54;;;;;;;57.08;23.35;;;;;;;;;;5024730;28;20112;-57
2022/01/18 08:21:20;;;;;;;67.38;25.15;;;;;;;;;;5021876;28;20064;-57
2022/01/18 08:23:46;;;;;;;63.42;26.35;;;;;;;;;;5018226;28;20478;-57
2022/01/18 08:26:12;;;;;;;63.85;23.08;;;;;;;;;;5024090;28;20081;-58
2022/01/18 08:28:38;;;;;;;56.50;25.48;;;;;;;;;;5020266;28;20694;-58
2022/01/18 08:31:04;;;;;;;34.33;15.57;;;;;;;;;;5022195;28;20029;-57
2022/01/18 08:33:33;;;;;;;42.53;19.42;;;;;;;;;;5025048;28;20034;-58
2022/01/18 08:36:03;;;;;;;36.00;18.48;;;;;;;;;;5022215;28;20041;-57
2022/01/18 08:38:30;;;;;;;41.20;17.75;;;;;;;;;;5025269;28;20112;-58
2022/01/18 08:40:59;;;;;;;28.80;14.50;;;;;;;;;;5021539;28;20447;-57
2022/01/18 08:43:26;;;;;;;14.93;8.98;;;;;;;;;;5023920;28;20037;-58
2022/01/18 08:45:51;;;;;;;11.43;8.48;;;;;;;;;;5021319;28;20034;-58
2022/01/18 08:48:17;;;;;;;12.88;8.75;;;;;;;;;;5020474;28;20041;-58
2022/01/18 08:50:43;;;;;;;17.92;11.82;;;;;;;;;;5028061;28;20053;-56
2022/01/18 08:53:09;;;;;;;24.25;15.20;;;;;;;;;;5025689;28;20044;-58
2022/01/18 08:55:35;;;;;;;21.17;13.52;;;;;;;;;;5030574;28;20029;-56
2022/01/18 08:58:02;;;;;;;18.33;11.52;;;;;;;;;;5027336;28;20032;-58
2022/01/18 09:00:28;;;;;;;18.45;10.30;;;;;;;;;;5025065;28;20033;-57
2022/01/18 09:02:54;;;;;;;14.73;8.73;;;;;;;;;;5031703;28;20041;-57
2022/01/18 09:05:22;;;;;;;11.07;7.38;;;;;;;;;;5031319;28;20909;-57
2022/01/18 09:07:49;;;;;;;15.90;10.02;;;;;;;;;;5023141;28;20045;-58
2022/01/18 09:10:15;;;;;;;25.85;14.98;;;;;;;;;;5030084;28;20041;-52
2022/01/18 09:12:41;;;;;;;22.45;14.73;;;;;;;;;;5026695;28;20700;-57
2022/01/18 09:15:09;;;;;;;27.35;14.90;;;;;;;;;;5027472;28;20432;-55
2022/01/18 09:17:37;;;;;;;29.13;15.95;;;;;;;;;;5027579;28;20044;-55
2022/01/18 09:20:06;;;;;;;21.15;12.23;;;;;;;;;;5025511;28;20060;-57
2022/01/18 09:22:38;;;;;;;24.73;13.27;;;;;;;;;;5029676;28;20475;-56
2022/01/18 09:25:25;;;;;;;20.98;12.50;;;;;;;;;;5026486;28;20030;-55
2022/01/18 09:27:51;;;;;;;26.25;12.40;;;;;;;;;;5020886;28;20037;-58
2022/01/18 09:30:18;;;;;;;17.70;11.55;;;;;;;;;;5026205;28;20025;-56
2022/01/18 09:32:45;;;;;;;23.00;13.32;;;;;;;;;;5025504;28;20022;-58
2022/01/18 09:35:12;;;;;;;19.48;11.82;;;;;;;;;;5028494;28;20065;-57
2022/01/18 09:37:38;;;;;;;21.77;12.00;;;;;;;;;;5027690;28;20025;-56
2022/01/18 09:40:05;;;;;;;20.25;11.60;;;;;;;;;;5029628;28;20040;-57
2022/01/18 09:42:34;;;;;;;22.60;12.15;;;;;;;;;;5023410;28;20073;-56
2022/01/18 09:45:03;;;;;;;21.20;11.32;;;;;;;;;;5027825;28;20037;-58
2022/01/18 09:47:29;;;;;;;24.50;12.20;;;;;;;;;;5029570;28;20021;-56
2022/01/18 09:49:58;;;;;;;24.75;12.82;;;;;;;;;;5028445;28;20041;-58
2022/01/18 09:52:23;;;;;;;21.20;12.82;;;;;;;;;;5025294;28;20071;-55
2022/01/18 09:54:50;;;;;;;21.88;12.75;;;;;;;;;;5030571;28;20474;-55
2022/01/18 09:57:15;;;;;;;24.48;13.38;;;;;;;;;;5029510;28;20110;-56
2022/01/18 09:59:41;;;;;;;22.20;12.88;;;;;;;;;;5026461;28;20112;-57
2022/01/18 10:02:10;;;;;;;25.05;14.23;;;;;;;;;;5027743;28;20033;-55
2022/01/18 10:04:44;;;;;;;22.38;14.57;;;;;;;;;;5027012;28;20056;-56
2022/01/18 10:07:10;;;;;;;30.95;15.88;;;;;;;;;;5024960;28;20037;-57
2022/01/18 10:09:37;;;;;;;35.03;16.92;;;;;;;;;;5027832;28;20061;-56
2022/01/18 10:12:07;;;;;;;37.58;16.50;;;;;;;;;;5026074;28;20033;-59
2022/01/18 10:14:34;;;;;;;37.22;15.15;;;;;;;;;;5023307;28;20037;-58
2022/01/18 10:17:00;;;;;;;27.52;16.05;;;;;;;;;;5019771;28;20044;-57
2022/01/18 10:19:50;;;;;;;33.13;18.17;;;;;;;;;;5021188;28;20026;-56
2022/01/18 10:22:21;;;;;;;36.13;17.98;;;;;;;;;;5021825;28;20504;-53
2022/01/18 10:24:46;;;;;;;40.97;20.00;;;;;;;;;;5026248;28;20025;-56
2022/01/18 10:27:13;;;;;;;35.13;19.88;;;;;;;;;;5026106;28;20098;-56
2022/01/18 10:29:49;;;;;;;45.40;18.90;;;;;;;;;;5029273;28;20105;-57
2022/01/18 10:32:25;;;;;;;45.28;20.27;;;;;;;;;;5023241;28;20072;-57
2022/01/18 10:37:20;;;;;;;46.05;21.25;;;;;;;;;;5022350;28;20086;-55
2022/01/18 10:39:54;;;;;;;49.08;23.90;;;;;;;;;;5021021;28;20026;-57
2022/01/18 10:42:24;;;;;;;40.28;19.83;;;;;;;;;;5023923;28;20029;-57
2022/01/18 10:45:01;;;;;;;54.05;19.40;;;;;;;;;;5025355;28;20030;-52
2022/01/18 10:47:27;;;;;;;52.45;22.10;;;;;;;;;;5024783;28;20022;-56
2022/01/18 10:49:53;;;;;;;50.47;20.80;;;;;;;;;;5021959;28;20095;-55
2022/01/18 10:52:26;;;;;;;52.97;20.25;;;;;;;;;;5021662;28;20034;-55
2022/01/18 10:55:00;;;;;;;38.00;17.77;;;;;;;;;;5025239;28;20415;-56
2022/01/18 10:57:38;;;;;;;36.67;18.25;;;;;;;;;;5024416;28;20025;-53
2022/01/18 11:00:21;;;;;;;39.13;17.88;;;;;;;;;;5024513;28;20519;-57
2022/01/18 11:02:52;;;;;;;44.95;19.15;;;;;;;;;;5021523;28;20036;-57
2022/01/18 11:05:25;;;;;;;34.35;18.17;;;;;;;;;;5026642;28;20038;-56
2022/01/18 11:07:50;;;;;;;;;;;;;;;;;;5028346;28;20021;-57
2022/01/18 11:10:19;;;;;;;43.60;20.67;;;;;;;;;;5024299;28;20277;-56
2022/01/18 11:12:46;;;;;;;35.70;21.42;;;;;;;;;;5021286;28;20033;-58
2022/01/18 11:15:18;;;;;;;45.72;21.15;;;;;;;;;;5022884;28;20060;-56
2022/01/18 11:17:50;;;;;;;37.45;19.08;;;;;;;;;;5023594;28;20470;-55
2022/01/18 11:20:16;;;;;;;;;;;;;;;;;;5020576;28;20057;-57
2022/01/18 11:22:42;;;;;;;29.42;16.85;;;;;;;;;;5022725;28;20357;-56
2022/01/18 11:25:09;;;;;;;31.17;17.60;;;;;;;;;;5026512;28;20044;-56
2022/01/18 11:27:36;;;;;;;37.28;17.58;;;;;;;;;;5026378;28;20043;-56
2022/01/18 11:30:06;;;;;;;42.60;18.27;;;;;;;;;;5024695;28;20046;-56
2022/01/18 11:32:32;;;;;;;42.70;18.67;;;;;;;;;;5022459;28;20422;-58
2022/01/18 11:35:09;;;;;;;47.95;18.63;;;;;;;;;;5022232;28;20064;-58
2022/01/18 11:37:58;;;;;;;31.02;16.10;;;;;;;;;;5022939;28;20080;-55
2022/01/18 11:40:25;;;;;;;31.25;16.25;;;;;;;;;;5026958;28;20030;-54
2022/01/18 11:42:55;;;;;;;25.85;14.70;;;;;;;;;;5024124;28;20056;-55
2022/01/18 11:45:24;;;;;;;29.83;15.35;;;;;;;;;;5021000;28;20049;-56
2022/01/18 11:47:59;;;;;;;37.47;14.85;;;;;;;;;;5014933;28;20049;-56
2022/01/18 11:50:40;;;;;;;32.50;13.52;;;;;;;;;;5021129;28;20510;-56
2022/01/18 11:53:37;;;;;;;29.55;14.85;;;;;;;;;;5021120;28;20053;-55
2022/01/18 11:56:03;;;;;;;22.08;15.15;;;;;;;;;;5018636;28;20041;-56
2022/01/18 11:58:30;;;;;;;25.67;15.55;;;;;;;;;;5024002;28;20037;-55
2022/01/18 12:00:58;;;;;;;29.98;16.15;;;;;;;;;;5017455;28;20037;-54
2022/01/18 12:03:40;;;;;;;28.70;15.43;;;;;;;;;;5020348;28;20041;-57
2022/01/18 12:06:06;;;;;;;;;;;;;;;;;;5022622;28;20494;-55
2022/01/18 12:08:38;;;;;;;29.17;16.30;;;;;;;;;;5020220;28;19955;-54
2022/01/18 12:11:07;;;;;;;34.15;18.10;;;;;;;;;;5023151;28;20080;-55
2022/01/18 12:13:36;;;;;;;29.85;16.70;;;;;;;;;;5025219;28;20029;-56
2022/01/18 12:16:10;;;;;;;29.83;16.63;;;;;;;;;;5022969;28;20071;-56
2022/01/18 12:18:50;;;;;;;30.90;15.20;;;;;;;;;;5024025;28;20044;-56
2022/01/18 12:21:24;;;;;;;29.42;15.43;;;;;;;;;;5017060;28;20053;-57
2022/01/18 12:23:51;;;;;;;30.42;15.82;;;;;;;;;;5022994;28;20530;-58
2022/01/18 12:31:53;;;;;;;34.97;16.95;;;;;;;;;;5020793;28;20037;-56
2022/01/18 12:34:24;;;;;;;32.70;16.95;;;;;;;;;;5023233;28;20120;-57
2022/01/18 12:36:52;;;;;;;37.05;18.65;;;;;;;;;;5021974;28;20033;-56
2022/01/18 12:39:18;;;;;;;30.85;18.25;;;;;;;;;;5017469;28;20510;-57
2022/01/18 12:41:50;;;;;;;28.92;18.67;;;;;;;;;;5021617;28;20029;-56
2022/01/18 12:44:22;;;;;;;37.55;19.58;;;;;;;;;;5025677;28;20501;-56
2022/01/18 12:46:52;;;;;;;35.35;19.02;;;;;;;;;;5021353;28;20144;-53
2022/01/18 12:49:18;;;;;;;32.50;17.75;;;;;;;;;;5015271;28;20064;-56
2022/01/18 12:51:44;;;;;;;29.63;17.90;;;;;;;;;;5022855;28;20025;-56
2022/01/18 12:54:10;;;;;;;32.00;17.65;;;;;;;;;;5023289;28;20541;-53
2022/01/18 12:56:36;;;;;;;46.40;18.27;;;;;;;;;;5022279;28;20022;-55
2022/01/18 12:59:06;;;;;;;41.72;18.63;;;;;;;;;;5021621;28;20448;-58
2022/01/18 13:01:33;;;;;;;37.92;19.52;;;;;;;;;;5022445;28;20053;-56
2022/01/18 13:03:59;;;;;;;34.05;19.08;;;;;;;;;;5025030;28;20092;-57
2022/01/18 13:06:30;;;;;;;32.38;18.67;;;;;;;;;;5016452;28;20034;-57
2022/01/18 13:09:00;;;;;;;44.72;17.13;;;;;;;;;;5017571;28;20045;-55
2022/01/18 13:11:31;;;;;;;31.05;17.77;;;;;;;;;;5025284;28;20068;-58
2022/01/18 13:14:03;;;;;;;36.53;18.02;;;;;;;;;;5020979;28;20042;-56
2022/01/18 13:30:24;;;;;;;37.35;17.25;;;;;;;;;;5031829;28;20504;-56
2022/01/18 13:32:52;;;;;;;37.53;18.08;;;;;;;;;;5035775;28;20040;-53
2022/01/18 13:35:24;;;;;;;34.33;18.08;;;;;;;;;;5024169;28;20157;-58
2022/01/18 13:37:50;;;;;;;43.55;17.92;;;;;;;;;;5044112;28;20048;-58
2022/01/18 13:40:18;;;;;;;30.23;17.42;;;;;;;;;;5040510;28;20037;-56
2022/01/18 13:43:14;;;;;;;35.83;17.83;;;;;;;;;;5038936;28;20533;-57
2022/01/18 13:45:44;;;;;;;30.85;17.40;;;;;;;;;;5035820;28;20588;-56
2022/01/18 13:48:13;;;;;;;39.28;17.13;;;;;;;;;;5042045;28;20568;-53
2022/01/18 13:50:56;;;;;;;41.92;19.30;;;;;;;;;;5036004;28;20029;-54
2022/01/18 13:53:30;;;;;;;38.78;18.98;;;;;;;;;;5041378;28;20049;-56
2022/01/18 13:56:02;;;;;;;31.13;18.23;;;;;;;;;;5036006;28;20104;-55
2022/01/18 13:58:30;;;;;;;36.50;18.45;;;;;;;;;;5039450;28;20510;-56
2022/01/18 14:01:14;;;;;;;30.70;18.00;;;;;;;;;;5042127;28;20045;-57
2022/01/18 14:03:46;;;;;;;37.45;17.85;;;;;;;;;;5041814;28;20488;-57
2022/01/18 14:06:14;;;;;;;44.97;18.13;;;;;;;;;;5027024;28;20041;-57
2022/01/18 14:08:49;;;;;;;36.80;18.85;;;;;;;;;;5022886;28;20040;-56
2022/01/18 14:11:24;;;;;;;38.67;19.40;;;;;;;;;;5052071;28;20046;-56
2022/01/18 14:13:51;;;;;;;34.05;20.35;;;;;;;;;;5022681;28;20402;-56
2022/01/18 14:16:19;;;;;;;38.17;17.65;;;;;;;;;;5024609;28;20081;-54
2022/01/18 14:19:06;;;;;;;38.03;18.75;;;;;;;;;;5022828;28;20033;-56
2022/01/18 14:21:37;;;;;;;37.22;16.85;;;;;;;;;;5023614;28;20053;-57
2022/01/18 14:24:19;;;;;;;40.88;18.40;;;;;;;;;;5025137;28;20112;-54
2022/01/18 14:26:53;;;;;;;32.55;18.77;;;;;;;;;;5020199;28;20017;-57
2022/01/18 14:29:22;;;;;;;26.67;17.17;;;;;;;;;;5024056;28;20056;-56
2022/01/18 14:32:05;;;;;;;28.80;17.75;;;;;;;;;;5019461;28;20030;-56
2022/01/18 14:34:36;;;;;;;29.92;19.33;;;;;;;;;;5024980;28;20037;-55
2022/01/18 14:37:03;;;;;;;28.83;18.43;;;;;;;;;;5021138;28;20509;-56
2022/01/18 14:39:29;;;;;;;28.42;17.67;;;;;;;;;;5028643;28;20764;-57
2022/01/18 14:42:05;;;;;;;32.63;16.20;;;;;;;;;;5021157;28;20049;-58
2022/01/18 14:45:35;;;;;;;24.30;17.10;;;;;;;;;;5020825;28;20474;-56
2022/01/18 14:47:29;;;;;;;24.65;15.95;;;;;;;;;;5016123;28;20128;-57
2022/01/18 14:49:56;;;;;;;30.45;17.17;;;;;;;;;;5024909;28;20139;-58
2022/01/18 14:52:23;;;;;;;32.40;18.67;;;;;;;;;;5023950;28;20021;-57
2022/01/18 14:54:49;;;;;;;24.38;17.05;;;;;;;;;;5022606;28;20038;-57
2022/01/18 14:57:15;;;;;;;30.65;17.67;;;;;;;;;;5025999;28;20090;-58
2022/01/18 14:59:41;;;;;;;30.48;18.10;;;;;;;;;;5024254;28;20026;-57
2022/01/18 15:02:09;;;;;;;24.30;12.20;;;;;;;;;;5017815;28;20033;-55
2022/01/18 15:04:35;;;;;;;23.83;12.07;;;;;;;;;;5022843;28;20033;-53
2022/01/18 15:07:00;;;;;;;16.85;10.10;;;;;;;;;;5025676;28;20026;-56
2022/01/18 15:09:28;;;;;;;21.05;7.75;;;;;;;;;;5025267;28;20036;-55
2022/01/18 15:11:59;;;;;;;14.32;7.82;;;;;;;;;;5022685;28;20030;-53
2022/01/18 15:14:25;;;;;;;21.55;10.65;;;;;;;;;;5025527;28;20037;-56
2022/01/18 15:16:51;;;;;;;13.63;8.45;;;;;;;;;;5021097;28;20027;-57
2022/01/18 15:19:17;;;;;;;14.77;8.48;;;;;;;;;;5021833;28;20577;-57
2022/01/18 15:21:43;;;;;;;14.18;9.02;;;;;;;;;;5023130;28;20057;-56
2022/01/18 15:24:09;;;;;;;23.00;10.18;;;;;;;;;;5026837;28;20029;-57
2022/01/18 15:26:34;;;;;;;17.75;9.45;;;;;;;;;;5024520;28;20537;-57
2022/01/18 15:29:00;;;;;;;12.82;8.10;;;;;;;;;;5019623;28;20495;-55
2022/01/18 15:31:26;;;;;;;16.02;7.68;;;;;;;;;;5021856;28;20471;-55
2022/01/18 15:33:52;;;;;;;12.63;6.60;;;;;;;;;;5020416;28;20034;-58
2022/01/18 15:36:18;;;;;;;11.68;6.45;;;;;;;;;;5018381;28;20040;-57
2022/01/18 15:38:44;;;;;;;14.05;7.63;;;;;;;;;;5020086;28;20041;-58
2022/01/18 15:41:10;;;;;;;12.40;6.85;;;;;;;;;;5023196;28;20394;-56
2022/01/18 15:43:36;;;;;;;11.77;6.85;;;;;;;;;;5018429;28;20037;-58
2022/01/18 15:46:02;;;;;;;11.68;7.50;;;;;;;;;;5018664;28;20033;-57
2022/01/18 15:48:29;;;;;;;13.10;7.57;;;;;;;;;;5024514;28;20057;-55
2022/01/18 15:50:55;;;;;;;13.80;8.05;;;;;;;;;;5020807;28;20036;-56
2022/01/18 15:53:21;;;;;;;13.43;6.90;;;;;;;;;;5024518;28;20018;-54
2022/01/18 15:55:47;;;;;;;15.85;7.88;;;;;;;;;;5021378;28;20029;-56
2022/01/18 15:58:14;;;;;;;11.82;7.43;;;;;;;;;;5022020;28;20040;-56
2022/01/18 16:00:42;;;;;;;13.98;9.63;;;;;;;;;;5020293;28;20119;-54
2022/01/18 16:03:09;;;;;;;21.40;11.85;;;;;;;;;;5024658;28;20041;-56
2022/01/18 16:05:37;;;;;;;23.33;13.30;;;;;;;;;;5021472;28;20449;-57
2022/01/18 16:08:05;;;;;;;22.88;14.93;;;;;;;;;;5022775;28;20562;-57